createdAt,value
2022-09-18T00:01:33.956Z,98856.84
2022-09-18T00:04:05.464Z,98854.13
2022-09-18T00:06:36.340Z,98851.41
2022-09-18T00:09:06.877Z,98846.09
2022-09-18T00:11:42.535Z,98854.03
2022-09-18T00:14:16.545Z,98855.44
2022-09-18T00:16:43.638Z,98864.09
2022-09-18T00:19:11.602Z,98857.66
2022-09-18T00:21:46.766Z,98859.25
2022-09-18T00:24:14.706Z,98859.88
2022-09-18T00:26:41.446Z,98865.28
2022-09-18T00:29:08.227Z,98858.66
2022-09-18T00:31:36.864Z,98863.59
2022-09-18T00:34:08.510Z,98867.91
2022-09-18T00:36:37.216Z,98860.66
2022-09-18T00:39:05.677Z,98865.28
2022-09-18T00:41:40.134Z,98865.00
2022-09-18T00:44:28.811Z,98852.81
2022-09-18T00:47:07.877Z,98862.06
2022-09-18T00:49:39.932Z,98842.56
2022-09-18T00:52:08.726Z,98849.09
2022-09-18T00:54:44.677Z,98853.03
2022-09-18T00:57:24.419Z,98848.09
2022-09-18T00:59:54.688Z,98840.25
2022-09-18T01:02:22.489Z,98852.59
2022-09-18T01:04:50.641Z,98852.59
2022-09-18T01:07:57.489Z,98849.50
2022-09-18T01:11:16.172Z,98859.66
2022-09-18T01:14:10.684Z,98857.53
2022-09-18T01:17:25.697Z,98846.78
2022-09-18T01:20:43.061Z,98855.03
2022-09-18T01:23:43.859Z,98847.06
2022-09-18T01:26:54.462Z,98842.94
2022-09-18T01:30:07.509Z,98853.00
2022-09-18T01:33:11.063Z,98850.78
2022-09-18T01:35:47.705Z,98853.41
2022-09-18T01:38:28.568Z,98843.16
2022-09-18T01:41:07.519Z,98846.06
2022-09-18T01:43:38.350Z,98846.16
2022-09-18T01:46:14.413Z,98839.03
2022-09-18T01:49:14.362Z,98834.41
2022-09-18T01:51:55.221Z,98840.13
2022-09-18T01:54:30.194Z,98839.03
2022-09-18T01:57:06.646Z,98848.00
2022-09-18T01:59:43.342Z,98848.78
2022-09-18T02:02:20.656Z,98841.22
2022-09-18T02:04:55.466Z,98845.56
2022-09-18T02:07:56.605Z,98850.69
2022-09-18T02:10:27.513Z,98849.88
2022-09-18T02:12:56.788Z,98850.59
2022-09-18T02:15:30.303Z,98834.41
2022-09-18T02:18:05.646Z,98839.84
2022-09-18T02:20:36.888Z,98829.28
2022-09-18T02:23:07.732Z,98842.16
2022-09-18T02:25:54.517Z,98831.06
2022-09-18T02:28:26.046Z,98830.06
2022-09-18T02:30:53.099Z,98833.59
2022-09-18T02:33:33.664Z,98829.69
2022-09-18T02:36:41.081Z,98815.53
2022-09-18T02:39:44.786Z,98823.94
2022-09-18T02:42:32.758Z,98829.69
2022-09-18T02:45:39.722Z,98840.31
2022-09-18T02:48:37.294Z,98847.16
2022-09-18T02:51:40.204Z,98835.22
2022-09-18T02:54:19.610Z,98833.19
2022-09-18T02:56:56.295Z,98835.63
2022-09-18T02:59:48.857Z,98833.00
2022-09-18T03:02:15.813Z,98828.09
2022-09-18T03:04:44.025Z,98827.25
2022-09-18T03:07:15.924Z,98819.22
2022-09-18T03:09:44.566Z,98812.50
2022-09-18T03:12:12.183Z,98810.88
2022-09-18T03:14:39.169Z,98798.94
2022-09-18T03:17:06.293Z,98805.66
2022-09-18T03:19:33.096Z,98809.38
2022-09-18T03:21:59.901Z,98800.94
2022-09-18T03:24:27.578Z,98806.16
2022-09-18T03:26:54.610Z,98800.44
2022-09-18T03:29:21.389Z,98809.19
2022-09-18T03:31:48.219Z,98800.22
2022-09-18T03:34:15.098Z,98803.75
2022-09-18T03:36:41.791Z,98804.53
2022-09-18T03:39:08.580Z,98805.88
2022-09-18T03:41:35.510Z,98808.00
2022-09-18T03:44:02.514Z,98809.59
2022-09-18T03:46:29.305Z,98809.09
2022-09-18T03:48:56.345Z,98819.44
2022-09-18T03:51:23.245Z,98815.63
2022-09-18T03:53:53.196Z,98816.91
2022-09-18T03:56:20.065Z,98823.06
2022-09-18T03:58:46.986Z,98823.34
2022-09-18T04:01:14.125Z,98834.19
2022-09-18T04:03:41.044Z,98835.31
2022-09-18T04:06:08.203Z,98834.00
2022-09-18T04:08:36.174Z,98835.72
2022-09-18T04:11:04.521Z,98837.91
2022-09-18T04:13:33.704Z,98848.31
2022-09-18T04:16:00.931Z,98845.63
2022-09-18T04:18:28.434Z,98842.91
2022-09-18T04:20:55.247Z,98839.91
2022-09-18T04:23:22.086Z,98838.56
2022-09-18T04:25:49.041Z,98841.59
2022-09-18T04:28:15.850Z,98829.34
2022-09-18T04:30:42.614Z,98821.75
2022-09-18T04:33:09.427Z,98821.19
2022-09-18T04:35:36.546Z,98814.16
2022-09-18T04:38:03.964Z,98816.88
2022-09-18T04:40:31.320Z,98810.34
2022-09-18T04:42:58.642Z,98812.78
2022-09-18T04:45:25.471Z,98815.78
2022-09-18T04:47:52.272Z,98815.50
2022-09-18T04:50:19.015Z,98817.59
2022-09-18T04:52:45.984Z,98816.81
2022-09-18T04:55:12.722Z,98812.50
2022-09-18T04:57:39.476Z,98812.19
2022-09-18T05:00:07.778Z,98830.88
2022-09-18T05:02:34.542Z,98826.84
2022-09-18T05:05:01.267Z,98830.97
2022-09-18T05:07:28.050Z,98825.25
2022-09-18T05:09:54.794Z,98824.34
2022-09-18T05:12:21.606Z,98826.16
2022-09-18T05:14:48.497Z,98817.81
2022-09-18T05:17:15.467Z,98842.16
2022-09-18T05:19:42.231Z,98835.50
2022-09-18T05:22:09.146Z,98830.56
2022-09-18T05:24:35.922Z,98832.69
2022-09-18T05:27:03.862Z,98824.88
2022-09-18T05:29:30.698Z,98825.97
2022-09-18T05:31:57.683Z,98830.56
2022-09-18T05:34:24.483Z,98834.09
2022-09-18T05:36:51.243Z,98837.91
2022-09-18T05:39:18.408Z,98836.00
2022-09-18T05:41:49.860Z,98840.03
2022-09-18T05:44:18.680Z,98837.81
2022-09-18T05:46:49.332Z,98834.38
2022-09-18T05:49:16.816Z,98839.03
2022-09-18T05:51:44.999Z,98838.53
2022-09-18T05:54:21.837Z,98828.16
2022-09-18T05:56:50.427Z,98843.34
2022-09-18T05:59:18.387Z,98843.53
2022-09-18T06:01:47.296Z,98845.16
2022-09-18T06:04:14.808Z,98847.75
2022-09-18T06:06:41.753Z,98849.38
2022-09-18T06:09:08.860Z,98855.63
2022-09-18T06:11:35.902Z,98861.56
2022-09-18T06:14:02.723Z,98859.34
2022-09-18T06:16:29.588Z,98863.66
2022-09-18T06:18:56.562Z,98862.66
2022-09-18T06:21:23.386Z,98868.09
2022-09-18T06:23:50.320Z,98862.66
2022-09-18T06:26:17.332Z,98865.66
2022-09-18T06:28:44.312Z,98875.63
2022-09-18T06:31:11.760Z,98880.53
2022-09-18T06:33:38.986Z,98880.75
2022-09-18T06:36:11.289Z,98878.94
2022-09-18T06:38:40.334Z,98880.75
2022-09-18T06:41:08.931Z,98882.56
2022-09-18T06:43:36.553Z,98881.47
2022-09-18T06:46:08.227Z,98887.69
2022-09-18T06:48:35.197Z,98882.34
2022-09-18T06:51:02.313Z,98886.38
2022-09-18T06:53:41.085Z,98887.50
2022-09-18T06:56:11.202Z,98887.69
2022-09-18T06:58:38.171Z,98885.38
2022-09-18T07:01:05.095Z,98885.69
2022-09-18T07:03:32.027Z,98880.28
2022-09-18T07:06:02.423Z,98889.00
2022-09-18T07:08:30.220Z,98885.19
2022-09-18T07:11:02.017Z,98892.31
2022-09-18T07:13:35.058Z,98883.78
2022-09-18T07:16:02.164Z,98890.72
2022-09-18T07:18:32.259Z,98883.19
2022-09-18T07:21:02.220Z,98889.13
2022-09-18T07:23:31.471Z,98886.41
2022-09-18T07:26:04.652Z,98891.75
2022-09-18T07:28:31.946Z,98890.63
2022-09-18T07:31:04.711Z,98892.97
2022-09-18T07:33:32.422Z,98892.25
2022-09-18T07:36:05.521Z,98896.69
2022-09-18T07:38:34.311Z,98893.47
2022-09-18T07:41:06.923Z,98901.00
2022-09-18T07:43:34.313Z,98906.03
2022-09-18T07:46:02.707Z,98900.69
2022-09-18T07:48:30.001Z,98899.47
2022-09-18T07:50:58.531Z,98900.09
2022-09-18T07:53:26.838Z,98904.91
2022-09-18T07:55:55.941Z,98906.13
2022-09-18T07:58:23.815Z,98903.63
2022-09-18T08:00:51.659Z,98904.91
2022-09-18T08:03:18.741Z,98905.91
2022-09-18T08:05:46.015Z,98913.47
2022-09-18T08:08:15.614Z,98913.56
2022-09-18T08:10:45.105Z,98915.69
2022-09-18T08:13:15.709Z,98923.41
2022-09-18T08:15:43.667Z,98918.91
2022-09-18T08:18:11.594Z,98920.28
2022-09-18T08:20:39.040Z,98923.00
2022-09-18T08:23:12.353Z,98926.06
2022-09-18T08:25:39.648Z,98919.09
2022-09-18T08:28:08.035Z,98924.22
2022-09-18T08:30:35.780Z,98923.91
2022-09-18T08:33:07.848Z,98916.75
2022-09-18T08:35:35.140Z,98917.97
2022-09-18T08:38:02.327Z,98915.13
2022-09-18T08:41:04.575Z,98922.38
2022-09-18T08:44:00.926Z,98918.84
2022-09-18T08:46:46.107Z,98919.66
2022-09-18T08:49:45.120Z,98911.41
2022-09-18T08:52:23.211Z,98913.72
2022-09-18T08:55:14.421Z,98913.50
2022-09-18T08:57:47.737Z,98906.38
2022-09-18T09:00:34.837Z,98904.06
2022-09-18T09:03:40.442Z,98911.09
2022-09-18T09:06:27.983Z,98912.72
2022-09-18T09:09:15.829Z,98918.13
2022-09-18T09:12:02.208Z,98921.03
2022-09-18T09:15:06.676Z,98918.41
2022-09-18T09:17:49.670Z,98909.19
2022-09-18T09:20:54.633Z,98917.19
2022-09-18T09:24:08.012Z,98913.09
2022-09-18T09:26:40.604Z,98911.41
2022-09-18T09:29:19.108Z,98911.66
2022-09-18T09:31:55.750Z,98916.81
2022-09-18T09:34:35.517Z,98920.25
2022-09-18T09:37:11.449Z,98904.94
2022-09-18T09:40:05.908Z,98903.53
2022-09-18T09:42:48.608Z,98904.84
2022-09-18T09:45:47.128Z,98902.72
2022-09-18T09:48:46.952Z,98895.66
2022-09-18T09:51:57.736Z,98895.66
2022-09-18T09:54:25.074Z,98902.13
2022-09-18T09:57:19.906Z,98895.44
2022-09-18T09:59:58.972Z,98896.59
2022-09-18T10:02:37.500Z,98891.66
2022-09-18T10:05:41.977Z,98893.72
2022-09-18T10:08:23.669Z,98888.81
2022-09-18T10:11:01.621Z,98884.59
2022-09-18T10:13:55.469Z,98886.56
2022-09-18T10:16:31.385Z,98889.22
2022-09-18T10:19:02.792Z,98890.09
2022-09-18T10:21:36.229Z,98896.13
2022-09-18T10:24:29.927Z,98885.50
2022-09-18T10:27:13.600Z,98883.34
2022-09-18T10:29:41.156Z,98886.34
2022-09-18T10:32:12.640Z,98878.31
2022-09-18T10:34:59.864Z,98874.84
2022-09-18T10:37:30.009Z,98877.53
2022-09-18T10:40:00.063Z,98872.09
2022-09-18T10:42:33.144Z,98872.09
2022-09-18T10:45:05.444Z,98881.59
2022-09-18T10:47:36.298Z,98870.00
2022-09-18T10:50:06.333Z,98861.72
2022-09-18T10:52:38.139Z,98864.47
2022-09-18T10:55:06.125Z,98863.31
2022-09-18T10:57:44.053Z,98857.84
2022-09-18T11:00:34.840Z,98867.59
2022-09-18T11:03:22.929Z,98852.81
2022-09-18T11:05:59.286Z,98859.97
2022-09-18T11:08:37.302Z,98862.13
2022-09-18T11:11:19.544Z,98864.69
2022-09-18T11:13:57.351Z,98852.44
2022-09-18T11:16:35.437Z,98840.25
2022-09-18T11:19:12.585Z,98841.13
2022-09-18T11:22:27.492Z,98831.16
2022-09-18T11:25:13.327Z,98839.53
2022-09-18T11:27:51.036Z,98832.78
2022-09-18T11:30:34.223Z,98828.84
2022-09-18T11:33:35.722Z,98834.50
2022-09-18T11:36:09.382Z,98819.91
2022-09-18T11:38:44.834Z,98817.97
2022-09-18T11:41:23.121Z,98820.41
2022-09-18T11:44:27.351Z,98825.31
2022-09-18T11:47:21.779Z,98825.47
2022-09-18T11:50:14.960Z,98845.25
2022-09-18T11:53:13.616Z,98827.66
2022-09-18T11:56:01.807Z,98833.81
2022-09-18T11:58:43.459Z,98822.09
2022-09-18T12:01:42.818Z,98821.28
2022-09-18T12:04:26.876Z,98811.97
2022-09-18T12:07:45.425Z,98814.97
2022-09-18T12:11:06.988Z,98804.00
2022-09-18T12:13:53.971Z,98796.84
2022-09-18T12:16:51.706Z,98796.13
2022-09-18T12:19:33.388Z,98812.94
2022-09-18T12:22:34.022Z,98806.44
2022-09-18T12:25:00.877Z,98804.13
2022-09-18T12:27:44.554Z,98809.94
2022-09-18T12:30:11.671Z,98791.69
2022-09-18T12:33:13.787Z,98790.97
2022-09-18T12:36:11.626Z,98788.19
2022-09-18T12:39:24.586Z,98778.44
2022-09-18T12:42:24.171Z,98779.78
2022-09-18T12:45:05.861Z,98777.03
2022-09-18T12:48:18.916Z,98772.31
2022-09-18T12:51:12.607Z,98781.53
2022-09-18T12:53:45.396Z,98787.91
2022-09-18T12:56:38.189Z,98789.84
2022-09-18T12:59:45.272Z,98780.03
2022-09-18T13:03:07.832Z,98786.03
2022-09-18T13:05:42.623Z,98791.25
2022-09-18T13:08:43.869Z,98790.56
2022-09-18T13:11:30.098Z,98785.66
2022-09-18T13:14:11.315Z,98794.56
2022-09-18T13:17:16.316Z,98782.03
2022-09-18T13:20:01.272Z,98778.78
2022-09-18T13:22:37.333Z,98781.78
2022-09-18T13:25:25.861Z,98764.03
2022-09-18T13:27:55.521Z,98761.88
2022-09-18T13:30:31.636Z,98759.94
2022-09-18T13:33:00.968Z,98749.38
2022-09-18T13:35:34.212Z,98757.56
2022-09-18T13:38:08.543Z,98753.69
2022-09-18T13:40:39.866Z,98745.84
2022-09-18T13:43:27.523Z,98757.06
2022-09-18T13:46:06.016Z,98756.03
2022-09-18T13:48:40.103Z,98744.84
2022-09-18T13:51:40.052Z,98741.91
2022-09-18T13:54:23.987Z,98732.38
2022-09-18T13:57:14.998Z,98740.09
2022-09-18T13:59:49.700Z,98731.94
2022-09-18T14:02:28.162Z,98728.44
2022-09-18T14:05:31.925Z,98716.53
2022-09-18T14:08:18.416Z,98722.91
2022-09-18T14:10:59.754Z,98725.47
2022-09-18T14:13:58.842Z,98717.09
2022-09-18T14:16:38.733Z,98709.94
2022-09-18T14:19:29.225Z,98722.63
2022-09-18T14:21:57.053Z,98717.84
2022-09-18T14:24:50.106Z,98726.94
2022-09-18T14:27:39.262Z,98718.28
2022-09-18T14:30:20.269Z,98701.16
2022-09-18T14:33:20.844Z,98702.41
2022-09-18T14:36:05.363Z,98700.56
2022-09-18T14:38:37.766Z,98690.44
2022-09-18T14:41:32.475Z,98694.28
2022-09-18T14:44:06.833Z,98690.38
2022-09-18T14:46:33.857Z,98690.66
2022-09-18T14:49:02.881Z,98685.34
2022-09-18T14:51:44.797Z,98678.25
2022-09-18T14:54:24.589Z,98686.84
2022-09-18T14:56:58.999Z,98681.72
2022-09-18T14:59:28.977Z,98680.91
2022-09-18T15:02:22.672Z,98671.31
2022-09-18T15:04:50.292Z,98664.81
2022-09-18T15:07:20.986Z,98661.28
2022-09-18T15:09:52.856Z,98648.38
2022-09-18T15:12:25.926Z,98652.09
2022-09-18T15:14:52.870Z,98657.78
2022-09-18T15:17:28.194Z,98649.00
2022-09-18T15:20:15.599Z,98654.06
2022-09-18T15:22:42.843Z,98650.88
2022-09-18T15:25:18.436Z,98636.75
2022-09-18T15:27:46.449Z,98640.47
2022-09-18T15:30:22.671Z,98642.59
2022-09-18T15:33:07.277Z,98645.66
2022-09-18T15:35:37.191Z,98647.94
2022-09-18T15:38:14.657Z,98646.22
2022-09-18T15:40:43.214Z,98642.19
2022-09-18T15:43:33.602Z,98636.72
2022-09-18T15:46:25.055Z,98639.66
2022-09-18T15:48:53.171Z,98633.41
2022-09-18T15:51:30.573Z,98632.75
2022-09-18T15:54:03.991Z,98621.00
2022-09-18T15:56:34.406Z,98629.56
2022-09-18T15:59:07.515Z,98617.03
2022-09-18T16:01:47.217Z,98618.75
2022-09-18T16:04:33.160Z,98613.44
2022-09-18T16:07:08.107Z,98610.69
2022-09-18T16:09:46.617Z,98608.28
2022-09-18T16:12:37.235Z,98610.69
2022-09-18T16:15:24.537Z,98611.69
2022-09-18T16:17:51.347Z,98621.16
2022-09-18T16:20:30.009Z,98614.09
2022-09-18T16:23:51.262Z,98616.41
2022-09-18T16:26:37.454Z,98600.69
2022-09-18T16:29:30.606Z,98604.72
2022-09-18T16:31:58.542Z,98599.72
2022-09-18T16:34:29.947Z,98592.00
2022-09-18T16:36:57.618Z,98584.94
2022-09-18T16:39:26.923Z,98581.72
2022-09-18T16:41:54.314Z,98581.94
2022-09-18T16:44:22.502Z,98579.41
2022-09-18T16:47:00.381Z,98580.38
2022-09-18T16:49:33.336Z,98586.31
2022-09-18T16:52:01.128Z,98586.50
2022-09-18T16:54:28.004Z,98578.31
2022-09-18T16:57:05.276Z,98574.78
2022-09-18T16:59:37.799Z,98566.28
2022-09-18T17:02:09.032Z,98577.19
2022-09-18T17:04:36.232Z,98587.16
2022-09-18T17:07:03.657Z,98583.94
2022-09-18T17:09:31.734Z,98578.38
2022-09-18T17:11:59.466Z,98574.34
2022-09-18T17:14:26.821Z,98565.19
2022-09-18T17:16:54.202Z,98576.31
2022-09-18T17:19:22.141Z,98571.94
2022-09-18T17:21:49.321Z,98571.81
2022-09-18T17:24:17.801Z,98571.22
2022-09-18T17:26:47.532Z,98575.06
2022-09-18T17:29:14.469Z,98572.03
2022-09-18T17:31:41.668Z,98569.28
2022-09-18T17:34:11.329Z,98561.75
2022-09-18T17:36:40.229Z,98565.63
2022-09-18T17:39:08.058Z,98560.94
2022-09-18T17:41:35.292Z,98566.41
2022-09-18T17:44:02.906Z,98565.81
2022-09-18T17:46:33.929Z,98577.97
2022-09-18T17:49:03.489Z,98564.50
2022-09-18T17:51:30.435Z,98566.41
2022-09-18T17:54:02.986Z,98570.47
2022-09-18T17:56:35.619Z,98569.34
2022-09-18T17:59:07.629Z,98570.81
2022-09-18T18:01:38.661Z,98568.53
2022-09-18T18:04:12.328Z,98565.34
2022-09-18T18:06:40.285Z,98571.59
2022-09-18T18:09:10.181Z,98572.88
2022-09-18T18:11:37.792Z,98577.53
2022-09-18T18:14:05.673Z,98592.63
2022-09-18T18:16:34.273Z,98579.78
2022-09-18T18:19:05.396Z,98579.78
2022-09-18T18:21:34.550Z,98583.63
2022-09-18T18:24:08.803Z,98592.94
2022-09-18T18:26:38.384Z,98595.69
2022-09-18T18:29:08.418Z,98604.22
2022-09-18T18:31:37.221Z,98609.31
2022-09-18T18:34:06.149Z,98605.00
2022-09-18T18:36:33.825Z,98592.00
2022-09-18T18:39:04.418Z,98599.53
2022-09-18T18:41:35.236Z,98592.16
2022-09-18T18:44:06.040Z,98588.81
2022-09-18T18:46:36.386Z,98601.97
2022-09-18T18:49:14.862Z,98595.88
2022-09-18T18:51:46.029Z,98601.31
2022-09-18T18:54:21.404Z,98596.06
2022-09-18T18:56:49.754Z,98598.31
2022-09-18T18:59:22.295Z,98599.44
2022-09-18T19:01:49.987Z,98606.19
2022-09-18T19:04:19.173Z,98597.84
2022-09-18T19:06:47.936Z,98595.78
2022-09-18T19:09:24.629Z,98599.63
2022-09-18T19:11:52.844Z,98609.41
2022-09-18T19:14:27.899Z,98599.63
2022-09-18T19:16:56.077Z,98603.47
2022-09-18T19:19:28.279Z,98596.13
2022-09-18T19:21:59.662Z,98589.06
2022-09-18T19:24:27.781Z,98599.81
2022-09-18T19:26:55.599Z,98612.66
2022-09-18T19:29:30.038Z,98603.19
2022-09-18T19:31:57.722Z,98604.78
2022-09-18T19:34:24.875Z,98594.72
2022-09-18T19:36:52.084Z,98609.00
2022-09-18T19:39:21.994Z,98610.13
2022-09-18T19:41:58.969Z,98622.66
2022-09-18T19:44:37.327Z,98628.75
2022-09-18T19:47:17.682Z,98637.09
2022-09-18T19:49:45.032Z,98635.34
2022-09-18T19:52:33.360Z,98636.97
2022-09-18T19:55:00.192Z,98641.78
2022-09-18T19:57:28.472Z,98641.66
2022-09-18T19:59:59.991Z,98641.19
2022-09-18T20:02:27.398Z,98651.44
2022-09-18T20:04:57.058Z,98668.94
2022-09-18T20:07:23.885Z,98657.38
2022-09-18T20:09:51.620Z,98659.78
2022-09-18T20:12:18.493Z,98648.69
2022-09-18T20:14:45.400Z,98653.50
2022-09-18T20:17:12.890Z,98650.31
2022-09-18T20:19:39.952Z,98645.50
2022-09-18T20:22:06.994Z,98655.13
2022-09-18T20:24:35.211Z,98652.22
2022-09-18T20:27:02.246Z,98646.28
2022-09-18T20:29:30.443Z,98647.88
2022-09-18T20:31:58.055Z,98653.00
2022-09-18T20:34:25.817Z,98644.19
2022-09-18T20:36:54.415Z,98646.91
2022-09-18T20:39:26.337Z,98645.44
2022-09-18T20:41:53.386Z,98635.00
2022-09-18T20:44:21.872Z,98634.22
2022-09-18T20:46:56.473Z,98631.66
2022-09-18T20:49:24.873Z,98625.53
2022-09-18T20:51:52.002Z,98629.38
2022-09-18T20:54:21.113Z,98633.84
2022-09-18T20:56:47.947Z,98635.91
2022-09-18T20:59:18.128Z,98628.56
2022-09-18T21:01:48.867Z,98634.31
2022-09-18T21:04:19.431Z,98633.34
2022-09-18T21:06:55.934Z,98635.44
2022-09-18T21:09:28.973Z,98634.94
2022-09-18T21:11:58.691Z,98630.31
2022-09-18T21:14:27.525Z,98640.38
2022-09-18T21:16:55.128Z,98634.88
2022-09-18T21:19:25.929Z,98632.94
2022-09-18T21:21:52.768Z,98632.72
2022-09-18T21:24:20.414Z,98638.91
2022-09-18T21:26:49.520Z,98643.03
2022-09-18T21:29:26.214Z,98639.09
2022-09-18T21:31:57.103Z,98639.09
2022-09-18T21:34:30.122Z,98639.09
2022-09-18T21:36:59.299Z,98638.91
2022-09-18T21:39:30.084Z,98644.53
2022-09-18T21:41:59.240Z,98647.34
2022-09-18T21:44:28.523Z,98642.25
2022-09-18T21:47:01.900Z,98641.31
2022-09-18T21:49:29.565Z,98642.59
2022-09-18T21:52:07.584Z,98640.69
2022-09-18T21:54:34.286Z,98654.78
2022-09-18T21:57:01.290Z,98654.78
2022-09-18T21:59:35.835Z,98651.75
2022-09-18T22:02:03.413Z,98658.00
2022-09-18T22:04:32.341Z,98657.50
2022-09-18T22:07:00.349Z,98656.78
2022-09-18T22:09:30.505Z,98665.41
2022-09-18T22:11:59.374Z,98663.97
2022-09-18T22:14:31.304Z,98663.69
2022-09-18T22:17:00.306Z,98665.56
2022-09-18T22:19:27.920Z,98670.72
2022-09-18T22:21:55.338Z,98674.22
2022-09-18T22:24:24.377Z,98683.50
2022-09-18T22:26:55.172Z,98676.59
2022-09-18T22:29:24.814Z,98687.59
2022-09-18T22:31:51.946Z,98699.38
2022-09-18T22:34:23.062Z,98708.75
2022-09-18T22:36:50.710Z,98712.41
2022-09-18T22:39:18.804Z,98714.28
2022-09-18T22:41:46.425Z,98760.75
2022-09-18T22:44:14.955Z,98769.66
2022-09-18T22:46:43.769Z,98765.38
2022-09-18T22:49:13.377Z,98774.06
2022-09-18T22:51:40.862Z,98780.94
2022-09-18T22:54:08.077Z,98784.25
2022-09-18T22:56:44.676Z,98795.13
2022-09-18T22:59:12.854Z,98798.53
2022-09-18T23:01:49.017Z,98798.44
2022-09-18T23:04:18.963Z,98804.03
2022-09-18T23:06:47.716Z,98812.88
2022-09-18T23:09:15.693Z,98811.13
2022-09-18T23:11:43.887Z,98815.31
2022-09-18T23:14:14.450Z,98810.88
2022-09-18T23:16:41.200Z,98806.63
2022-09-18T23:19:12.973Z,98791.38
2022-09-18T23:21:40.093Z,98801.84
2022-09-18T23:24:09.285Z,98801.22
2022-09-18T23:26:41.549Z,98805.63
2022-09-18T23:29:11.043Z,98799.78
2022-09-18T23:31:40.101Z,98785.19
2022-09-18T23:34:13.049Z,98799.06
2022-09-18T23:36:43.088Z,98801.53
2022-09-18T23:39:25.173Z,98802.38
2022-09-18T23:41:52.165Z,98811.88
2022-09-18T23:44:20.632Z,98820.59
2022-09-18T23:46:48.408Z,98819.84
2022-09-18T23:49:16.640Z,98806.88
2022-09-18T23:51:48.196Z,98810.41
2022-09-18T23:54:18.049Z,98817.13
2022-09-18T23:56:46.363Z,98818.66
2022-09-18T23:59:15.151Z,98818.47
